createdAt,value
2022-12-18T00:01:32.454Z,93.47
2022-12-18T00:04:00.380Z,94.21
2022-12-18T00:06:29.472Z,94.51
2022-12-18T00:08:59.545Z,93.15
2022-12-18T00:11:29.894Z,92.63
2022-12-18T00:13:58.559Z,92.55
2022-12-18T00:16:27.500Z,93.27
2022-12-18T00:18:56.264Z,93.33
2022-12-18T00:21:23.290Z,93.69
2022-12-18T00:23:51.462Z,92.93
2022-12-18T00:26:24.063Z,93.37
2022-12-18T00:28:55.093Z,93.39
2022-12-18T00:31:24.882Z,92.71
2022-12-18T00:33:57.809Z,92.90
2022-12-18T00:36:28.901Z,93.65
2022-12-18T00:38:57.779Z,93.62
2022-12-18T00:41:44.138Z,92.82
2022-12-18T00:44:13.697Z,92.84
2022-12-18T00:46:40.910Z,92.67
2022-12-18T00:49:07.984Z,93.28
2022-12-18T00:51:35.107Z,92.77
2022-12-18T00:54:02.472Z,92.98
2022-12-18T00:56:29.451Z,92.70
2022-12-18T00:58:56.405Z,92.91
2022-12-18T01:01:23.622Z,93.37
2022-12-18T01:03:50.735Z,93.10
2022-12-18T01:06:17.873Z,93.28
2022-12-18T01:08:45.237Z,92.03
2022-12-18T01:11:20.447Z,92.35
2022-12-18T01:13:47.478Z,93.04
2022-12-18T01:16:16.151Z,91.93
2022-12-18T01:18:43.264Z,91.45
2022-12-18T01:21:12.883Z,92.00
2022-12-18T01:23:40.414Z,91.71
2022-12-18T01:26:13.847Z,91.00
2022-12-18T01:28:41.114Z,91.57
2022-12-18T01:31:40.573Z,92.32
2022-12-18T01:34:07.805Z,92.16
2022-12-18T01:36:38.074Z,91.48
2022-12-18T01:39:08.315Z,91.60
2022-12-18T01:41:53.842Z,91.77
2022-12-18T01:44:48.668Z,91.59
2022-12-18T01:47:22.910Z,91.59
2022-12-18T01:49:50.168Z,92.41
2022-12-18T01:52:19.192Z,91.87
2022-12-18T01:54:46.876Z,91.54
2022-12-18T01:57:13.884Z,92.32
2022-12-18T01:59:43.867Z,92.91
2022-12-18T02:02:11.053Z,93.10
2022-12-18T02:04:38.115Z,92.88
2022-12-18T02:07:10.899Z,93.32
2022-12-18T02:09:51.766Z,93.03
2022-12-18T02:12:25.587Z,93.45
2022-12-18T02:15:12.884Z,93.61
2022-12-18T02:17:47.829Z,93.59
2022-12-18T02:20:37.383Z,93.89
2022-12-18T02:23:14.549Z,93.53
2022-12-18T02:25:56.926Z,93.97
2022-12-18T02:28:29.412Z,93.72
2022-12-18T02:31:02.295Z,93.69
2022-12-18T02:33:31.770Z,93.92
2022-12-18T02:36:00.580Z,93.15
2022-12-18T02:38:30.954Z,93.10
2022-12-18T02:41:04.463Z,91.82
2022-12-18T02:43:31.916Z,93.42
2022-12-18T02:46:02.743Z,93.48
2022-12-18T02:48:36.132Z,93.21
2022-12-18T02:51:24.895Z,93.50
2022-12-18T02:54:02.240Z,93.80
2022-12-18T02:56:55.456Z,94.44
2022-12-18T02:59:40.646Z,93.82
2022-12-18T03:02:27.562Z,94.12
2022-12-18T03:05:20.493Z,93.88
2022-12-18T03:07:54.162Z,93.17
2022-12-18T03:10:28.844Z,94.53
2022-12-18T03:13:15.279Z,95.08
2022-12-18T03:15:48.258Z,94.41
2022-12-18T03:18:22.838Z,94.66
2022-12-18T03:20:52.345Z,93.94
2022-12-18T03:23:26.569Z,94.83
2022-12-18T03:26:03.026Z,94.43
2022-12-18T03:28:37.880Z,94.88
2022-12-18T03:31:08.247Z,94.87
2022-12-18T03:33:48.215Z,95.32
2022-12-18T03:36:16.201Z,94.69
2022-12-18T03:38:43.375Z,96.16
2022-12-18T03:41:11.000Z,96.37
2022-12-18T03:44:05.108Z,96.12
2022-12-18T03:46:39.339Z,95.33
2022-12-18T03:49:16.082Z,96.01
2022-12-18T03:52:01.039Z,96.03
2022-12-18T03:54:30.213Z,96.53
2022-12-18T03:57:19.404Z,96.43
2022-12-18T03:59:53.224Z,97.03
2022-12-18T04:02:26.184Z,96.20
2022-12-18T04:04:56.990Z,96.01
2022-12-18T04:07:25.243Z,96.64
2022-12-18T04:09:57.149Z,96.27
2022-12-18T04:12:29.874Z,96.74
2022-12-18T04:14:57.484Z,97.35
2022-12-18T04:17:25.076Z,97.17
2022-12-18T04:19:52.266Z,97.29
2022-12-18T04:22:19.353Z,97.61
2022-12-18T04:24:51.394Z,96.73
2022-12-18T04:27:27.810Z,98.15
2022-12-18T04:29:55.007Z,98.70
2022-12-18T04:32:21.968Z,97.78
2022-12-18T04:34:49.312Z,98.21
2022-12-18T04:37:16.412Z,98.80
2022-12-18T04:39:44.287Z,98.67
2022-12-18T04:42:19.621Z,99.04
2022-12-18T04:44:46.670Z,98.11
2022-12-18T04:47:13.558Z,97.43
2022-12-18T04:49:40.535Z,98.61
2022-12-18T04:52:08.778Z,98.86
2022-12-18T04:54:35.749Z,98.93
2022-12-18T04:57:02.745Z,99.46
2022-12-18T04:59:29.860Z,98.41
2022-12-18T05:01:56.892Z,98.33
2022-12-18T05:04:23.946Z,100.00
2022-12-18T05:06:50.910Z,100.00
2022-12-18T05:09:17.802Z,100.00
2022-12-18T05:11:47.685Z,100.00
2022-12-18T05:14:14.726Z,100.00
2022-12-18T05:16:41.749Z,100.00
2022-12-18T05:19:08.628Z,100.00
2022-12-18T05:21:35.553Z,100.00
2022-12-18T05:24:02.443Z,99.89
2022-12-18T05:26:29.430Z,100.00
2022-12-18T05:28:56.323Z,100.00
2022-12-18T05:31:23.334Z,100.00
2022-12-18T05:33:50.387Z,100.00
2022-12-18T05:36:17.290Z,99.56
2022-12-18T05:38:44.203Z,99.14
2022-12-18T05:41:11.271Z,100.00
2022-12-18T05:43:40.150Z,100.00
2022-12-18T05:46:10.148Z,100.00
2022-12-18T05:48:37.117Z,99.34
2022-12-18T05:51:08.662Z,98.80
2022-12-18T05:53:37.931Z,100.00
2022-12-18T05:56:08.225Z,100.00
2022-12-18T05:58:35.620Z,100.00
2022-12-18T06:01:11.458Z,100.00
2022-12-18T06:03:39.171Z,100.00
2022-12-18T06:06:24.863Z,100.00
2022-12-18T06:08:52.446Z,100.00
2022-12-18T06:11:22.061Z,100.00
2022-12-18T06:13:58.219Z,100.00
2022-12-18T06:16:26.999Z,100.00
2022-12-18T06:18:54.294Z,100.00
2022-12-18T06:21:21.219Z,100.00
2022-12-18T06:23:48.166Z,100.00
2022-12-18T06:26:15.758Z,100.00
2022-12-18T06:28:43.187Z,100.00
2022-12-18T06:31:10.931Z,100.00
2022-12-18T06:33:39.079Z,100.00
2022-12-18T06:36:12.071Z,100.00
2022-12-18T06:38:41.468Z,100.00
2022-12-18T06:41:17.301Z,100.00
2022-12-18T06:43:45.005Z,100.00
2022-12-18T06:46:12.803Z,100.00
2022-12-18T06:48:40.598Z,100.00
2022-12-18T06:51:07.794Z,100.00
2022-12-18T06:53:34.727Z,100.00
2022-12-18T06:56:10.425Z,100.00
2022-12-18T06:58:40.858Z,100.00
2022-12-18T07:01:11.091Z,100.00
2022-12-18T07:03:40.105Z,100.00
2022-12-18T07:06:07.707Z,100.00
2022-12-18T07:08:34.937Z,100.00
2022-12-18T07:11:04.404Z,100.00
2022-12-18T07:13:31.416Z,100.00
2022-12-18T07:16:08.554Z,100.00
2022-12-18T07:18:38.227Z,100.00
2022-12-18T07:21:10.514Z,100.00
2022-12-18T07:23:38.116Z,100.00
2022-12-18T07:26:07.461Z,100.00
2022-12-18T07:28:34.969Z,100.00
2022-12-18T07:31:07.072Z,100.00
2022-12-18T07:33:35.015Z,100.00
2022-12-18T07:36:04.695Z,100.00
2022-12-18T07:38:32.122Z,100.00
2022-12-18T07:41:03.900Z,100.00
2022-12-18T07:43:34.985Z,100.00
2022-12-18T07:46:01.958Z,100.00
2022-12-18T07:48:29.734Z,100.00
2022-12-18T07:51:02.076Z,100.00
2022-12-18T07:53:28.992Z,100.00
2022-12-18T07:56:26.143Z,100.00
2022-12-18T07:58:47.943Z,100.00
2022-12-18T08:01:16.055Z,100.00
2022-12-18T08:03:43.727Z,100.00
2022-12-18T08:06:11.124Z,100.00
2022-12-18T08:08:38.311Z,100.00
2022-12-18T08:11:05.527Z,100.00
2022-12-18T08:13:32.376Z,100.00
2022-12-18T08:16:00.606Z,100.00
2022-12-18T08:18:27.642Z,100.00
2022-12-18T08:20:55.528Z,100.00
2022-12-18T08:23:22.752Z,100.00
2022-12-18T08:25:49.872Z,100.00
2022-12-18T08:28:16.820Z,100.00
2022-12-18T08:30:43.875Z,100.00
2022-12-18T08:33:10.917Z,100.00
2022-12-18T08:35:44.062Z,100.00
2022-12-18T08:38:12.644Z,100.00
2022-12-18T08:40:39.581Z,100.00
2022-12-18T08:43:25.015Z,100.00
2022-12-18T08:45:51.938Z,100.00
2022-12-18T08:48:22.451Z,100.00
2022-12-18T08:50:57.528Z,100.00
2022-12-18T08:53:25.203Z,100.00
2022-12-18T08:55:52.163Z,100.00
2022-12-18T08:58:19.128Z,100.00
2022-12-18T09:00:46.439Z,100.00
2022-12-18T09:03:18.303Z,100.00
2022-12-18T09:05:47.123Z,100.00
2022-12-18T09:08:14.056Z,100.00
2022-12-18T09:10:47.808Z,100.00
2022-12-18T09:13:16.371Z,100.00
2022-12-18T09:15:43.985Z,100.00
2022-12-18T09:18:10.991Z,100.00
2022-12-18T09:20:39.098Z,100.00
2022-12-18T09:23:06.860Z,100.00
2022-12-18T09:25:36.870Z,100.00
2022-12-18T09:28:06.812Z,100.00
2022-12-18T09:30:36.974Z,100.00
2022-12-18T09:33:04.236Z,100.00
2022-12-18T09:35:33.296Z,100.00
2022-12-18T09:38:00.629Z,100.00
2022-12-18T09:40:33.842Z,100.00
2022-12-18T09:43:05.299Z,100.00
2022-12-18T09:45:45.587Z,100.00
2022-12-18T09:48:32.279Z,100.00
2022-12-18T09:51:04.868Z,100.00
2022-12-18T09:53:36.306Z,100.00
2022-12-18T09:56:05.770Z,100.00
2022-12-18T09:58:46.383Z,100.00
2022-12-18T10:01:17.680Z,100.00
2022-12-18T10:03:45.524Z,100.00
2022-12-18T10:06:19.643Z,100.00
2022-12-18T10:08:46.468Z,100.00
2022-12-18T10:11:26.501Z,100.00
2022-12-18T10:13:58.202Z,100.00
2022-12-18T10:16:44.476Z,100.00
2022-12-18T10:19:42.500Z,100.00
2022-12-18T10:22:34.555Z,100.00
2022-12-18T10:25:24.656Z,100.00
2022-12-18T10:27:56.460Z,100.00
2022-12-18T10:30:25.594Z,100.00
2022-12-18T10:32:52.970Z,100.00
2022-12-18T10:35:21.904Z,100.00
2022-12-18T10:38:06.764Z,100.00
2022-12-18T10:40:48.222Z,100.00
2022-12-18T10:43:20.313Z,100.00
2022-12-18T10:46:11.230Z,100.00
2022-12-18T10:48:49.463Z,100.00
2022-12-18T10:51:32.532Z,100.00
2022-12-18T10:54:06.221Z,100.00
2022-12-18T10:56:38.155Z,100.00
2022-12-18T10:59:08.989Z,100.00
2022-12-18T11:01:53.376Z,100.00
2022-12-18T11:04:32.732Z,100.00
2022-12-18T11:07:02.530Z,100.00
2022-12-18T11:09:33.589Z,100.00
2022-12-18T11:12:03.982Z,100.00
2022-12-18T11:14:46.768Z,100.00
2022-12-18T11:17:26.203Z,100.00
2022-12-18T11:20:21.624Z,100.00
2022-12-18T11:23:06.678Z,100.00
2022-12-18T11:25:36.042Z,100.00
2022-12-18T11:28:31.162Z,100.00
2022-12-18T11:31:26.575Z,100.00
2022-12-18T11:34:28.131Z,100.00
2022-12-18T11:36:49.961Z,100.00
2022-12-18T11:39:36.366Z,100.00
2022-12-18T11:42:12.866Z,100.00
2022-12-18T11:44:46.142Z,100.00
2022-12-18T11:47:34.201Z,100.00
2022-12-18T11:50:03.786Z,100.00
2022-12-18T11:52:52.858Z,100.00
2022-12-18T11:55:23.590Z,100.00
2022-12-18T11:58:04.843Z,100.00
2022-12-18T12:00:32.109Z,100.00
2022-12-18T12:03:17.370Z,100.00
2022-12-18T12:05:55.287Z,100.00
2022-12-18T12:08:44.421Z,100.00
2022-12-18T12:11:35.858Z,100.00
2022-12-18T12:14:23.554Z,100.00
2022-12-18T12:17:23.058Z,100.00
2022-12-18T12:20:21.757Z,100.00
2022-12-18T12:22:51.999Z,100.00
2022-12-18T12:25:22.397Z,100.00
2022-12-18T12:28:13.405Z,100.00
2022-12-18T12:31:08.355Z,100.00
2022-12-18T12:33:41.389Z,100.00
2022-12-18T12:36:20.667Z,100.00
2022-12-18T12:38:56.311Z,100.00
2022-12-18T12:41:47.083Z,100.00
2022-12-18T12:44:25.229Z,100.00
2022-12-18T12:46:57.340Z,100.00
2022-12-18T12:49:28.694Z,100.00
2022-12-18T12:52:26.174Z,100.00
2022-12-18T12:54:54.326Z,100.00
2022-12-18T12:57:46.690Z,100.00
2022-12-18T13:00:25.362Z,100.00
2022-12-18T13:03:21.243Z,100.00
2022-12-18T13:06:04.541Z,100.00
2022-12-18T13:08:51.999Z,100.00
2022-12-18T13:11:57.856Z,100.00
2022-12-18T13:14:34.702Z,100.00
2022-12-18T13:17:28.581Z,100.00
2022-12-18T13:20:06.029Z,100.00
2022-12-18T13:22:45.260Z,100.00
2022-12-18T13:25:33.965Z,100.00
2022-12-18T13:28:18.398Z,100.00
2022-12-18T13:30:58.867Z,100.00
2022-12-18T13:33:25.824Z,100.00
2022-12-18T13:36:02.904Z,100.00
2022-12-18T13:38:33.298Z,100.00
2022-12-18T13:41:21.630Z,100.00
2022-12-18T13:44:12.043Z,100.00
2022-12-18T13:46:48.101Z,100.00
2022-12-18T13:49:14.975Z,100.00
2022-12-18T13:51:45.598Z,100.00
2022-12-18T13:54:35.885Z,100.00
2022-12-18T13:57:04.884Z,100.00
2022-12-18T13:59:41.117Z,100.00
2022-12-18T14:02:16.136Z,100.00
2022-12-18T14:04:47.460Z,100.00
2022-12-18T14:07:23.451Z,100.00
2022-12-18T14:10:12.138Z,100.00
2022-12-18T14:13:01.009Z,100.00
2022-12-18T14:15:56.748Z,100.00
2022-12-18T14:18:46.101Z,100.00
2022-12-18T14:21:28.891Z,100.00
2022-12-18T14:24:20.011Z,100.00
2022-12-18T14:26:50.451Z,100.00
2022-12-18T14:29:24.182Z,100.00
2022-12-18T14:32:17.330Z,100.00
2022-12-18T14:34:53.231Z,100.00
2022-12-18T14:37:28.155Z,100.00
2022-12-18T14:40:11.037Z,100.00
2022-12-18T14:42:39.976Z,100.00
2022-12-18T14:45:41.858Z,100.00
2022-12-18T14:48:37.391Z,100.00
2022-12-18T14:51:25.456Z,100.00
2022-12-18T14:53:59.725Z,100.00
2022-12-18T14:56:30.426Z,100.00
2022-12-18T14:58:58.664Z,100.00
2022-12-18T15:01:33.408Z,100.00
2022-12-18T15:04:02.791Z,100.00
2022-12-18T15:06:32.081Z,100.00
2022-12-18T15:09:01.080Z,100.00
2022-12-18T15:11:47.160Z,100.00
2022-12-18T15:14:36.900Z,100.00
2022-12-18T15:17:08.115Z,100.00
2022-12-18T15:19:43.854Z,100.00
2022-12-18T15:22:24.536Z,100.00
2022-12-18T15:24:51.846Z,100.00
2022-12-18T15:27:28.085Z,100.00
2022-12-18T15:30:19.168Z,100.00
2022-12-18T15:32:47.085Z,100.00
2022-12-18T15:35:23.466Z,100.00
2022-12-18T15:37:53.035Z,100.00
2022-12-18T15:40:25.091Z,100.00
2022-12-18T15:43:13.983Z,100.00
2022-12-18T15:45:40.959Z,100.00
2022-12-18T15:48:22.586Z,100.00
2022-12-18T15:50:53.506Z,100.00
2022-12-18T15:53:20.883Z,100.00
2022-12-18T15:56:06.663Z,100.00
2022-12-18T15:58:34.365Z,100.00
2022-12-18T16:01:03.127Z,100.00
2022-12-18T16:03:30.351Z,100.00
2022-12-18T16:05:59.396Z,100.00
2022-12-18T16:08:27.123Z,100.00
2022-12-18T16:10:54.221Z,100.00
2022-12-18T16:13:21.702Z,100.00
2022-12-18T16:15:48.824Z,100.00
2022-12-18T16:18:16.097Z,100.00
2022-12-18T16:20:43.030Z,100.00
2022-12-18T16:23:09.906Z,100.00
2022-12-18T16:25:36.961Z,100.00
2022-12-18T16:28:03.930Z,100.00
2022-12-18T16:30:37.977Z,100.00
2022-12-18T16:33:07.689Z,100.00
2022-12-18T16:35:35.361Z,100.00
2022-12-18T16:38:02.384Z,100.00
2022-12-18T16:40:32.629Z,100.00
2022-12-18T16:42:59.537Z,100.00
2022-12-18T16:45:26.646Z,100.00
2022-12-18T16:47:53.515Z,100.00
2022-12-18T16:50:20.398Z,100.00
2022-12-18T16:52:47.363Z,100.00
2022-12-18T16:55:14.272Z,100.00
2022-12-18T16:57:41.244Z,100.00
2022-12-18T17:00:08.762Z,100.00
2022-12-18T17:02:36.797Z,100.00
2022-12-18T17:05:04.218Z,100.00
2022-12-18T17:07:31.262Z,100.00
2022-12-18T17:09:58.215Z,100.00
2022-12-18T17:12:26.815Z,100.00
2022-12-18T17:14:53.717Z,100.00
2022-12-18T17:17:22.738Z,100.00
2022-12-18T17:19:51.824Z,100.00
2022-12-18T17:22:19.707Z,100.00
2022-12-18T17:24:47.490Z,100.00
2022-12-18T17:27:14.540Z,100.00
2022-12-18T17:29:47.230Z,100.00
2022-12-18T17:32:15.486Z,100.00
2022-12-18T17:34:42.419Z,100.00
2022-12-18T17:37:09.747Z,100.00
2022-12-18T17:39:37.246Z,100.00
2022-12-18T17:42:05.330Z,100.00
2022-12-18T17:44:34.423Z,100.00
2022-12-18T17:47:01.638Z,100.00
2022-12-18T17:49:29.086Z,100.00
2022-12-18T17:51:56.157Z,100.00
2022-12-18T17:54:23.135Z,100.00
2022-12-18T17:56:50.092Z,100.00
2022-12-18T17:59:17.040Z,100.00
2022-12-18T18:01:45.167Z,100.00
2022-12-18T18:04:13.528Z,100.00
2022-12-18T18:06:40.997Z,99.72
2022-12-18T18:09:15.289Z,100.00
2022-12-18T18:12:04.162Z,100.00
2022-12-18T18:14:31.675Z,100.00
2022-12-18T18:17:04.103Z,100.00
2022-12-18T18:19:33.015Z,100.00
2022-12-18T18:21:59.978Z,100.00
2022-12-18T18:24:27.518Z,100.00
2022-12-18T18:26:55.699Z,100.00
2022-12-18T18:29:26.599Z,100.00
2022-12-18T18:31:54.236Z,100.00
2022-12-18T18:34:26.953Z,100.00
2022-12-18T18:36:53.942Z,100.00
2022-12-18T18:39:21.319Z,97.31
2022-12-18T18:41:48.853Z,99.80
2022-12-18T18:44:17.307Z,98.88
2022-12-18T18:46:45.351Z,95.15
2022-12-18T18:49:13.899Z,92.62
2022-12-18T18:51:41.637Z,94.01
2022-12-18T18:54:09.528Z,95.15
2022-12-18T18:59:30.402Z,96.00
2022-12-18T19:02:00.647Z,94.94
2022-12-18T19:04:32.603Z,95.34
2022-12-18T19:07:09.388Z,94.73
2022-12-18T19:09:36.462Z,92.13
2022-12-18T19:12:22.771Z,96.43
2022-12-18T19:14:50.115Z,92.32
2022-12-18T19:17:17.128Z,94.54
2022-12-18T19:19:44.260Z,94.34
2022-12-18T19:22:11.421Z,89.41
2022-12-18T19:24:38.813Z,92.63
2022-12-18T19:27:05.784Z,93.61
2022-12-18T19:29:32.802Z,92.66
2022-12-18T19:32:00.474Z,91.05
2022-12-18T19:34:27.837Z,90.51
2022-12-18T19:36:59.701Z,91.74
2022-12-18T19:39:27.450Z,92.37
2022-12-18T19:41:54.719Z,93.68
2022-12-18T19:44:21.654Z,96.46
2022-12-18T19:46:53.797Z,94.50
2022-12-18T19:49:20.711Z,96.46
2022-12-18T19:51:47.966Z,90.68
2022-12-18T19:54:17.859Z,94.90
2022-12-18T19:56:47.631Z,92.88
2022-12-18T19:59:14.546Z,91.18
2022-12-18T20:01:41.832Z,93.88
2022-12-18T20:04:09.150Z,95.38
2022-12-18T20:06:47.411Z,94.19
2022-12-18T20:09:14.652Z,91.78
2022-12-18T20:11:42.546Z,91.09
2022-12-18T20:14:14.646Z,92.79
2022-12-18T20:16:45.807Z,91.50
2022-12-18T20:19:14.010Z,94.33
2022-12-18T20:21:41.740Z,94.55
2022-12-18T20:24:09.145Z,95.70
2022-12-18T20:26:36.224Z,96.50
2022-12-18T20:29:03.436Z,96.63
2022-12-18T20:31:30.529Z,97.11
2022-12-18T20:34:01.610Z,96.03
2022-12-18T20:36:31.769Z,95.11
2022-12-18T20:39:02.654Z,92.95
2022-12-18T20:41:38.447Z,94.28
2022-12-18T20:44:19.034Z,93.32
2022-12-18T20:46:56.471Z,94.91
2022-12-18T20:49:25.007Z,89.91
2022-12-18T20:51:54.182Z,91.18
2022-12-18T20:54:22.252Z,88.58
2022-12-18T20:56:49.579Z,90.66
2022-12-18T20:59:16.898Z,93.15
2022-12-18T21:01:48.596Z,91.26
2022-12-18T21:04:18.651Z,88.78
2022-12-18T21:06:54.228Z,90.74
2022-12-18T21:09:30.352Z,86.87
2022-12-18T21:12:24.342Z,92.26
2022-12-18T21:14:51.521Z,92.78
2022-12-18T21:17:18.527Z,92.05
2022-12-18T21:19:45.517Z,93.53
2022-12-18T21:22:13.710Z,90.17
2022-12-18T21:24:40.997Z,91.81
2022-12-18T21:27:08.020Z,91.48
2022-12-18T21:29:35.074Z,88.97
2022-12-18T21:32:03.433Z,91.71
2022-12-18T21:34:32.674Z,89.99
2022-12-18T21:37:01.038Z,89.63
2022-12-18T21:39:29.468Z,90.79
2022-12-18T21:42:16.136Z,85.02
2022-12-18T21:44:44.652Z,89.06
2022-12-18T21:47:22.029Z,88.30
2022-12-18T21:49:53.433Z,87.02
2022-12-18T21:52:31.312Z,89.12
2022-12-18T21:55:07.964Z,90.25
2022-12-18T21:57:37.315Z,91.45
2022-12-18T22:00:05.837Z,91.60
2022-12-18T22:02:39.488Z,88.66
2022-12-18T22:05:07.101Z,90.43
2022-12-18T22:07:34.228Z,89.77
2022-12-18T22:10:02.053Z,92.82
2022-12-18T22:12:44.452Z,90.41
2022-12-18T22:15:21.020Z,90.74
2022-12-18T22:17:57.412Z,92.10
2022-12-18T22:20:29.260Z,91.06
2022-12-18T22:22:57.250Z,90.01
2022-12-18T22:25:24.251Z,91.50
2022-12-18T22:28:09.685Z,92.42
2022-12-18T22:30:36.635Z,90.92
2022-12-18T22:33:03.972Z,88.21
2022-12-18T22:35:31.081Z,90.87
2022-12-18T22:38:01.544Z,91.31
2022-12-18T22:40:29.328Z,89.69
2022-12-18T22:42:56.645Z,92.46
2022-12-18T22:45:26.979Z,92.71
2022-12-18T22:47:54.203Z,91.73
2022-12-18T22:50:21.195Z,94.42
2022-12-18T22:52:48.119Z,92.90
2022-12-18T22:55:15.483Z,95.84
2022-12-18T22:57:47.957Z,93.36
2022-12-18T23:00:16.181Z,91.48
2022-12-18T23:02:45.028Z,91.32
2022-12-18T23:05:12.022Z,93.57
2022-12-18T23:07:38.943Z,91.04
2022-12-18T23:10:06.327Z,93.41
2022-12-18T23:12:33.294Z,91.82
2022-12-18T23:15:02.831Z,93.86
2022-12-18T23:17:30.806Z,90.96
2022-12-18T23:19:57.708Z,92.68
2022-12-18T23:22:24.603Z,88.87
2022-12-18T23:24:51.636Z,93.48
2022-12-18T23:27:18.587Z,93.11
2022-12-18T23:29:45.447Z,96.09
2022-12-18T23:32:14.461Z,95.60
2022-12-18T23:34:41.443Z,96.38
2022-12-18T23:37:08.423Z,97.68
2022-12-18T23:39:35.268Z,95.95
2022-12-18T23:42:02.227Z,95.79
2022-12-18T23:44:29.127Z,96.28
2022-12-18T23:46:56.114Z,95.40
2022-12-18T23:49:23.481Z,96.25
2022-12-18T23:51:50.641Z,95.55
2022-12-18T23:54:17.683Z,93.60
2022-12-18T23:56:52.613Z,95.29
2022-12-18T23:59:23.944Z,93.94
